sensor_id;sensor_type;location;lat;lon;timestamp;P1;durP1;ratioP1;P2;durP2;ratioP2
14748;SDS011;7466;53.574;9.976;2023-07-28T00:00:38;7.33;;;6.87;;
14748;SDS011;7466;53.574;9.976;2023-07-28T00:03:05;7.23;;;6.63;;
14748;SDS011;7466;53.574;9.976;2023-07-28T00:05:32;6.77;;;6.37;;
14748;SDS011;7466;53.574;9.976;2023-07-28T00:07:58;6.07;;;5.67;;
14748;SDS011;7466;53.574;9.976;2023-07-28T00:10:25;6.03;;;5.43;;
14748;SDS011;7466;53.574;9.976;2023-07-28T00:12:52;6.03;;;5.63;;
14748;SDS011;7466;53.574;9.976;2023-07-28T00:15:18;5.60;;;5.20;;
14748;SDS011;7466;53.574;9.976;2023-07-28T00:17:46;5.67;;;5.27;;
14748;SDS011;7466;53.574;9.976;2023-07-28T00:20:13;5.97;;;5.57;;
14748;SDS011;7466;53.574;9.976;2023-07-28T00:22:40;5.70;;;5.20;;
14748;SDS011;7466;53.574;9.976;2023-07-28T00:25:07;5.73;;;5.37;;
14748;SDS011;7466;53.574;9.976;2023-07-28T00:27:34;5.43;;;5.13;;
14748;SDS011;7466;53.574;9.976;2023-07-28T00:30:01;6.00;;;5.60;;
14748;SDS011;7466;53.574;9.976;2023-07-28T00:32:27;5.10;;;4.70;;
14748;SDS011;7466;53.574;9.976;2023-07-28T00:34:55;4.90;;;4.50;;
14748;SDS011;7466;53.574;9.976;2023-07-28T00:37:22;5.60;;;5.30;;
14748;SDS011;7466;53.574;9.976;2023-07-28T00:39:49;6.30;;;5.90;;
14748;SDS011;7466;53.574;9.976;2023-07-28T00:42:15;6.03;;;5.43;;
14748;SDS011;7466;53.574;9.976;2023-07-28T00:44:42;5.97;;;5.57;;
14748;SDS011;7466;53.574;9.976;2023-07-28T00:47:09;6.17;;;5.77;;
14748;SDS011;7466;53.574;9.976;2023-07-28T00:49:35;6.00;;;5.57;;
14748;SDS011;7466;53.574;9.976;2023-07-28T00:52:05;5.43;;;5.13;;
14748;SDS011;7466;53.574;9.976;2023-07-28T00:54:34;5.23;;;4.93;;
14748;SDS011;7466;53.574;9.976;2023-07-28T00:57:01;5.20;;;4.73;;
14748;SDS011;7466;53.574;9.976;2023-07-28T00:59:28;5.63;;;5.33;;
14748;SDS011;7466;53.574;9.976;2023-07-28T01:01:55;5.30;;;5.00;;
14748;SDS011;7466;53.574;9.976;2023-07-28T01:04:22;5.60;;;5.30;;
14748;SDS011;7466;53.574;9.976;2023-07-28T01:06:51;5.73;;;5.23;;
14748;SDS011;7466;53.574;9.976;2023-07-28T01:09:26;5.57;;;5.27;;
14748;SDS011;7466;53.574;9.976;2023-07-28T01:11:55;5.40;;;5.10;;
14748;SDS011;7466;53.574;9.976;2023-07-28T01:14:22;5.60;;;5.30;;
14748;SDS011;7466;53.574;9.976;2023-07-28T01:16:49;5.40;;;5.10;;
14748;SDS011;7466;53.574;9.976;2023-07-28T01:19:17;5.53;;;5.23;;
14748;SDS011;7466;53.574;9.976;2023-07-28T01:21:46;5.63;;;5.33;;
14748;SDS011;7466;53.574;9.976;2023-07-28T01:24:20;5.10;;;4.80;;
14748;SDS011;7466;53.574;9.976;2023-07-28T01:26:55;5.80;;;5.20;;
14748;SDS011;7466;53.574;9.976;2023-07-28T01:29:22;5.60;;;5.30;;
14748;SDS011;7466;53.574;9.976;2023-07-28T01:31:50;4.70;;;4.50;;
14748;SDS011;7466;53.574;9.976;2023-07-28T01:34:17;6.40;;;6.00;;
14748;SDS011;7466;53.574;9.976;2023-07-28T01:36:44;6.00;;;5.60;;
14748;SDS011;7466;53.574;9.976;2023-07-28T01:39:11;5.77;;;5.40;;
14748;SDS011;7466;53.574;9.976;2023-07-28T01:41:37;4.93;;;4.70;;
14748;SDS011;7466;53.574;9.976;2023-07-28T01:44:09;5.93;;;5.43;;
14748;SDS011;7466;53.574;9.976;2023-07-28T01:46:36;5.30;;;5.00;;
14748;SDS011;7466;53.574;9.976;2023-07-28T01:49:03;5.90;;;5.50;;
14748;SDS011;7466;53.574;9.976;2023-07-28T01:51:29;5.87;;;5.57;;
14748;SDS011;7466;53.574;9.976;2023-07-28T01:53:56;5.80;;;5.33;;
14748;SDS011;7466;53.574;9.976;2023-07-28T01:56:23;5.93;;;5.53;;
14748;SDS011;7466;53.574;9.976;2023-07-28T01:58:49;5.70;;;5.40;;
14748;SDS011;7466;53.574;9.976;2023-07-28T02:01:17;5.60;;;5.30;;
14748;SDS011;7466;53.574;9.976;2023-07-28T02:03:44;5.63;;;5.23;;
14748;SDS011;7466;53.574;9.976;2023-07-28T02:06:11;5.63;;;5.23;;
14748;SDS011;7466;53.574;9.976;2023-07-28T02:08:37;5.40;;;4.97;;
14748;SDS011;7466;53.574;9.976;2023-07-28T02:11:04;5.73;;;5.43;;
14748;SDS011;7466;53.574;9.976;2023-07-28T02:13:31;6.67;;;6.00;;
14748;SDS011;7466;53.574;9.976;2023-07-28T02:15:57;6.83;;;6.43;;
14748;SDS011;7466;53.574;9.976;2023-07-28T02:18:25;7.17;;;6.67;;
14748;SDS011;7466;53.574;9.976;2023-07-28T02:20:52;7.43;;;6.93;;
14748;SDS011;7466;53.574;9.976;2023-07-28T02:23:19;7.80;;;7.10;;
14748;SDS011;7466;53.574;9.976;2023-07-28T02:25:46;7.20;;;6.70;;
14748;SDS011;7466;53.574;9.976;2023-07-28T02:28:12;7.13;;;6.53;;
14748;SDS011;7466;53.574;9.976;2023-07-28T02:30:39;7.30;;;6.80;;
14748;SDS011;7466;53.574;9.976;2023-07-28T02:33:06;7.37;;;6.87;;
14748;SDS011;7466;53.574;9.976;2023-07-28T02:35:34;7.30;;;6.80;;
14748;SDS011;7466;53.574;9.976;2023-07-28T02:38:01;7.20;;;6.70;;
14748;SDS011;7466;53.574;9.976;2023-07-28T02:40:28;7.33;;;6.73;;
14748;SDS011;7466;53.574;9.976;2023-07-28T02:42:54;7.50;;;6.90;;
14748;SDS011;7466;53.574;9.976;2023-07-28T02:45:22;7.50;;;7.00;;
14748;SDS011;7466;53.574;9.976;2023-07-28T02:47:49;7.63;;;7.03;;
14748;SDS011;7466;53.574;9.976;2023-07-28T02:50:16;8.00;;;7.47;;
14748;SDS011;7466;53.574;9.976;2023-07-28T02:52:44;7.57;;;7.07;;
14748;SDS011;7466;53.574;9.976;2023-07-28T02:55:11;8.50;;;7.80;;
14748;SDS011;7466;53.574;9.976;2023-07-28T02:57:37;8.13;;;7.43;;
14748;SDS011;7466;53.574;9.976;2023-07-28T03:00:05;8.80;;;8.10;;
14748;SDS011;7466;53.574;9.976;2023-07-28T03:02:35;7.60;;;7.10;;
14748;SDS011;7466;53.574;9.976;2023-07-28T03:05:02;8.70;;;8.03;;
14748;SDS011;7466;53.574;9.976;2023-07-28T03:07:29;7.87;;;7.37;;
14748;SDS011;7466;53.574;9.976;2023-07-28T03:09:57;8.50;;;7.70;;
14748;SDS011;7466;53.574;9.976;2023-07-28T03:12:24;7.57;;;7.00;;
14748;SDS011;7466;53.574;9.976;2023-07-28T03:14:51;7.80;;;7.20;;
14748;SDS011;7466;53.574;9.976;2023-07-28T03:17:17;7.40;;;6.87;;
14748;SDS011;7466;53.574;9.976;2023-07-28T03:19:44;6.93;;;6.33;;
14748;SDS011;7466;53.574;9.976;2023-07-28T03:22:11;6.70;;;6.10;;
14748;SDS011;7466;53.574;9.976;2023-07-28T03:24:37;6.73;;;6.33;;
14748;SDS011;7466;53.574;9.976;2023-07-28T03:27:06;6.30;;;5.90;;
14748;SDS011;7466;53.574;9.976;2023-07-28T03:29:33;6.50;;;6.10;;
14748;SDS011;7466;53.574;9.976;2023-07-28T03:32:00;6.37;;;5.97;;
14748;SDS011;7466;53.574;9.976;2023-07-28T03:34:26;6.57;;;6.17;;
14748;SDS011;7466;53.574;9.976;2023-07-28T03:36:53;6.63;;;6.10;;
14748;SDS011;7466;53.574;9.976;2023-07-28T03:39:20;5.87;;;5.47;;
14748;SDS011;7466;53.574;9.976;2023-07-28T03:41:46;5.90;;;5.50;;
14748;SDS011;7466;53.574;9.976;2023-07-28T03:44:17;6.20;;;5.80;;
14748;SDS011;7466;53.574;9.976;2023-07-28T03:46:44;5.63;;;5.33;;
14748;SDS011;7466;53.574;9.976;2023-07-28T03:49:11;4.80;;;4.57;;
14748;SDS011;7466;53.574;9.976;2023-07-28T03:51:38;4.70;;;4.50;;
14748;SDS011;7466;53.574;9.976;2023-07-28T03:54:05;4.83;;;4.63;;
14748;SDS011;7466;53.574;9.976;2023-07-28T03:56:31;4.40;;;4.20;;
14748;SDS011;7466;53.574;9.976;2023-07-28T03:58:58;4.40;;;4.20;;
14748;SDS011;7466;53.574;9.976;2023-07-28T04:01:26;4.47;;;4.27;;
14748;SDS011;7466;53.574;9.976;2023-07-28T04:03:53;4.80;;;4.60;;
14748;SDS011;7466;53.574;9.976;2023-07-28T04:06:19;4.57;;;4.33;;
14748;SDS011;7466;53.574;9.976;2023-07-28T04:09:05;4.97;;;4.67;;
14748;SDS011;7466;53.574;9.976;2023-07-28T04:11:32;5.00;;;4.70;;
14748;SDS011;7466;53.574;9.976;2023-07-28T04:13:59;4.70;;;4.50;;
14748;SDS011;7466;53.574;9.976;2023-07-28T04:16:27;4.77;;;4.57;;
14748;SDS011;7466;53.574;9.976;2023-07-28T04:18:54;5.23;;;4.83;;
14748;SDS011;7466;53.574;9.976;2023-07-28T04:21:21;5.23;;;4.93;;
14748;SDS011;7466;53.574;9.976;2023-07-28T04:23:47;5.50;;;5.20;;
14748;SDS011;7466;53.574;9.976;2023-07-28T04:26:14;5.67;;;5.37;;
14748;SDS011;7466;53.574;9.976;2023-07-28T04:28:42;5.87;;;5.57;;
14748;SDS011;7466;53.574;9.976;2023-07-28T04:31:09;6.00;;;5.60;;
14748;SDS011;7466;53.574;9.976;2023-07-28T04:33:38;6.43;;;6.07;;
14748;SDS011;7466;53.574;9.976;2023-07-28T04:36:06;6.27;;;5.97;;
14748;SDS011;7466;53.574;9.976;2023-07-28T04:38:33;7.23;;;6.53;;
14748;SDS011;7466;53.574;9.976;2023-07-28T04:41:00;7.17;;;6.77;;
14748;SDS011;7466;53.574;9.976;2023-07-28T04:43:27;7.00;;;6.60;;
14748;SDS011;7466;53.574;9.976;2023-07-28T04:45:54;7.37;;;6.97;;
14748;SDS011;7466;53.574;9.976;2023-07-28T04:48:21;7.50;;;7.10;;
14748;SDS011;7466;53.574;9.976;2023-07-28T04:50:49;6.70;;;6.30;;
14748;SDS011;7466;53.574;9.976;2023-07-28T04:53:15;6.43;;;6.13;;
14748;SDS011;7466;53.574;9.976;2023-07-28T04:55:42;7.40;;;7.00;;
14748;SDS011;7466;53.574;9.976;2023-07-28T04:58:09;6.93;;;6.53;;
14748;SDS011;7466;53.574;9.976;2023-07-28T05:00:35;7.20;;;6.77;;
14748;SDS011;7466;53.574;9.976;2023-07-28T05:03:02;7.83;;;7.13;;
14748;SDS011;7466;53.574;9.976;2023-07-28T05:05:29;7.30;;;6.90;;
14748;SDS011;7466;53.574;9.976;2023-07-28T05:07:57;7.10;;;6.60;;
14748;SDS011;7466;53.574;9.976;2023-07-28T05:10:24;7.10;;;6.70;;
14748;SDS011;7466;53.574;9.976;2023-07-28T05:12:50;7.37;;;6.97;;
14748;SDS011;7466;53.574;9.976;2023-07-28T05:15:17;6.80;;;6.40;;
14748;SDS011;7466;53.574;9.976;2023-07-28T05:17:44;6.93;;;6.53;;
14748;SDS011;7466;53.574;9.976;2023-07-28T05:20:11;6.83;;;6.33;;
14748;SDS011;7466;53.574;9.976;2023-07-28T05:22:38;6.20;;;5.90;;
14748;SDS011;7466;53.574;9.976;2023-07-28T05:25:06;6.17;;;5.87;;
14748;SDS011;7466;53.574;9.976;2023-07-28T05:27:34;6.10;;;5.80;;
14748;SDS011;7466;53.574;9.976;2023-07-28T05:30:00;6.10;;;5.80;;
14748;SDS011;7466;53.574;9.976;2023-07-28T05:32:27;5.60;;;5.30;;
14748;SDS011;7466;53.574;9.976;2023-07-28T05:34:54;5.73;;;5.23;;
14748;SDS011;7466;53.574;9.976;2023-07-28T05:37:20;5.13;;;4.83;;
14748;SDS011;7466;53.574;9.976;2023-07-28T05:39:47;4.23;;;4.03;;
14748;SDS011;7466;53.574;9.976;2023-07-28T05:42:15;4.37;;;4.17;;
14748;SDS011;7466;53.574;9.976;2023-07-28T05:44:42;4.37;;;4.17;;
14748;SDS011;7466;53.574;9.976;2023-07-28T05:47:09;4.87;;;4.67;;
14748;SDS011;7466;53.574;9.976;2023-07-28T05:49:36;4.30;;;4.03;;
14748;SDS011;7466;53.574;9.976;2023-07-28T05:52:03;4.10;;;3.90;;
14748;SDS011;7466;53.574;9.976;2023-07-28T05:54:30;4.57;;;4.37;;
14748;SDS011;7466;53.574;9.976;2023-07-28T05:56:56;4.13;;;3.73;;
14748;SDS011;7466;53.574;9.976;2023-07-28T05:59:24;4.33;;;4.07;;
14748;SDS011;7466;53.574;9.976;2023-07-28T06:01:51;4.47;;;4.27;;
14748;SDS011;7466;53.574;9.976;2023-07-28T06:04:18;3.50;;;3.30;;
14748;SDS011;7466;53.574;9.976;2023-07-28T06:06:45;3.77;;;3.60;;
14748;SDS011;7466;53.574;9.976;2023-07-28T06:09:12;3.70;;;3.50;;
14748;SDS011;7466;53.574;9.976;2023-07-28T06:11:39;3.30;;;3.20;;
14748;SDS011;7466;53.574;9.976;2023-07-28T06:14:06;3.10;;;3.00;;
14748;SDS011;7466;53.574;9.976;2023-07-28T06:16:34;3.37;;;3.27;;
14748;SDS011;7466;53.574;9.976;2023-07-28T06:19:00;3.40;;;3.20;;
14748;SDS011;7466;53.574;9.976;2023-07-28T06:21:29;3.20;;;2.73;;
14748;SDS011;7466;53.574;9.976;2023-07-28T06:23:56;3.13;;;3.03;;
14748;SDS011;7466;53.574;9.976;2023-07-28T06:26:22;3.30;;;3.00;;
14748;SDS011;7466;53.574;9.976;2023-07-28T06:28:49;2.80;;;2.70;;
14748;SDS011;7466;53.574;9.976;2023-07-28T06:31:16;2.60;;;2.40;;
14748;SDS011;7466;53.574;9.976;2023-07-28T06:33:44;2.77;;;2.57;;
14748;SDS011;7466;53.574;9.976;2023-07-28T06:36:11;2.70;;;2.60;;
14748;SDS011;7466;53.574;9.976;2023-07-28T06:38:37;2.63;;;2.43;;
14748;SDS011;7466;53.574;9.976;2023-07-28T06:41:04;2.40;;;2.30;;
14748;SDS011;7466;53.574;9.976;2023-07-28T06:43:31;3.20;;;2.90;;
14748;SDS011;7466;53.574;9.976;2023-07-28T06:45:58;2.73;;;2.63;;
14748;SDS011;7466;53.574;9.976;2023-07-28T06:48:24;2.97;;;2.87;;
14748;SDS011;7466;53.574;9.976;2023-07-28T06:50:52;2.80;;;2.70;;
14748;SDS011;7466;53.574;9.976;2023-07-28T06:53:19;2.87;;;2.77;;
14748;SDS011;7466;53.574;9.976;2023-07-28T06:55:46;2.60;;;2.40;;
14748;SDS011;7466;53.574;9.976;2023-07-28T06:58:13;2.50;;;2.40;;
14748;SDS011;7466;53.574;9.976;2023-07-28T07:00:39;2.60;;;2.50;;
14748;SDS011;7466;53.574;9.976;2023-07-28T07:03:06;2.90;;;2.80;;
14748;SDS011;7466;53.574;9.976;2023-07-28T07:05:33;2.70;;;2.60;;
14748;SDS011;7466;53.574;9.976;2023-07-28T07:08:01;3.13;;;2.93;;
14748;SDS011;7466;53.574;9.976;2023-07-28T07:10:28;2.83;;;2.63;;
14748;SDS011;7466;53.574;9.976;2023-07-28T07:12:55;2.77;;;2.67;;
14748;SDS011;7466;53.574;9.976;2023-07-28T07:15:22;2.70;;;2.60;;
14748;SDS011;7466;53.574;9.976;2023-07-28T07:17:49;2.63;;;2.43;;
14748;SDS011;7466;53.574;9.976;2023-07-28T07:20:16;2.80;;;2.70;;
14748;SDS011;7466;53.574;9.976;2023-07-28T07:22:42;3.87;;;2.33;;
14748;SDS011;7466;53.574;9.976;2023-07-28T07:25:10;2.67;;;2.57;;
14748;SDS011;7466;53.574;9.976;2023-07-28T07:27:37;2.50;;;2.40;;
14748;SDS011;7466;53.574;9.976;2023-07-28T07:30:04;2.60;;;2.40;;
14748;SDS011;7466;53.574;9.976;2023-07-28T07:32:32;2.60;;;2.40;;
14748;SDS011;7466;53.574;9.976;2023-07-28T07:34:59;2.50;;;2.40;;
14748;SDS011;7466;53.574;9.976;2023-07-28T07:37:26;3.00;;;2.90;;
14748;SDS011;7466;53.574;9.976;2023-07-28T07:39:53;2.57;;;2.37;;
14748;SDS011;7466;53.574;9.976;2023-07-28T07:42:21;2.20;;;2.00;;
14748;SDS011;7466;53.574;9.976;2023-07-28T07:44:48;2.23;;;2.13;;
14748;SDS011;7466;53.574;9.976;2023-07-28T07:47:15;2.23;;;2.13;;
14748;SDS011;7466;53.574;9.976;2023-07-28T07:49:42;2.10;;;2.00;;
14748;SDS011;7466;53.574;9.976;2023-07-28T07:52:09;2.20;;;2.00;;
14748;SDS011;7466;53.574;9.976;2023-07-28T07:54:36;2.17;;;2.07;;
14748;SDS011;7466;53.574;9.976;2023-07-28T07:57:03;1.93;;;1.83;;
14748;SDS011;7466;53.574;9.976;2023-07-28T07:59:31;1.80;;;1.70;;
14748;SDS011;7466;53.574;9.976;2023-07-28T08:01:59;1.87;;;1.77;;
14748;SDS011;7466;53.574;9.976;2023-07-28T08:04:27;2.23;;;2.13;;
14748;SDS011;7466;53.574;9.976;2023-07-28T08:06:54;1.87;;;1.87;;
14748;SDS011;7466;53.574;9.976;2023-07-28T08:09:21;2.27;;;2.17;;
14748;SDS011;7466;53.574;9.976;2023-07-28T08:11:48;2.00;;;1.90;;
14748;SDS011;7466;53.574;9.976;2023-07-28T08:14:15;1.90;;;1.90;;
14748;SDS011;7466;53.574;9.976;2023-07-28T08:16:43;2.00;;;1.90;;
14748;SDS011;7466;53.574;9.976;2023-07-28T08:19:10;1.50;;;1.50;;
14748;SDS011;7466;53.574;9.976;2023-07-28T08:21:36;1.93;;;1.77;;
14748;SDS011;7466;53.574;9.976;2023-07-28T08:24:03;1.83;;;1.77;;
14748;SDS011;7466;53.574;9.976;2023-07-28T08:26:30;2.50;;;1.80;;
14748;SDS011;7466;53.574;9.976;2023-07-28T08:28:57;2.20;;;2.10;;
14748;SDS011;7466;53.574;9.976;2023-07-28T08:31:24;2.20;;;2.10;;
14748;SDS011;7466;53.574;9.976;2023-07-28T08:33:52;1.90;;;1.80;;
14748;SDS011;7466;53.574;9.976;2023-07-28T08:36:18;1.90;;;1.80;;
14748;SDS011;7466;53.574;9.976;2023-07-28T08:38:45;2.10;;;2.00;;
14748;SDS011;7466;53.574;9.976;2023-07-28T08:41:12;2.23;;;2.13;;
14748;SDS011;7466;53.574;9.976;2023-07-28T08:43:39;2.40;;;2.30;;
14748;SDS011;7466;53.574;9.976;2023-07-28T08:46:05;2.30;;;2.20;;
14748;SDS011;7466;53.574;9.976;2023-07-28T08:48:32;2.73;;;2.37;;
14748;SDS011;7466;53.574;9.976;2023-07-28T08:51:01;2.30;;;2.20;;
14748;SDS011;7466;53.574;9.976;2023-07-28T08:53:29;2.30;;;2.20;;
14748;SDS011;7466;53.574;9.976;2023-07-28T08:55:56;2.17;;;2.07;;
14748;SDS011;7466;53.574;9.976;2023-07-28T08:58:23;2.33;;;2.23;;
14748;SDS011;7466;53.574;9.976;2023-07-28T09:00:50;3.13;;;2.30;;
14748;SDS011;7466;53.574;9.976;2023-07-28T09:03:18;3.13;;;2.30;;
14748;SDS011;7466;53.574;9.976;2023-07-28T09:05:46;2.50;;;2.30;;
14748;SDS011;7466;53.574;9.976;2023-07-28T09:08:15;2.80;;;2.67;;
14748;SDS011;7466;53.574;9.976;2023-07-28T09:10:42;2.77;;;2.67;;
14748;SDS011;7466;53.574;9.976;2023-07-28T09:13:10;2.67;;;2.57;;
14748;SDS011;7466;53.574;9.976;2023-07-28T09:15:38;2.67;;;2.50;;
14748;SDS011;7466;53.574;9.976;2023-07-28T09:18:07;3.00;;;2.90;;
14748;SDS011;7466;53.574;9.976;2023-07-28T09:20:35;3.00;;;2.80;;
14748;SDS011;7466;53.574;9.976;2023-07-28T09:23:03;3.00;;;2.80;;
14748;SDS011;7466;53.574;9.976;2023-07-28T09:25:32;3.40;;;2.70;;
14748;SDS011;7466;53.574;9.976;2023-07-28T09:27:58;3.07;;;2.77;;
14748;SDS011;7466;53.574;9.976;2023-07-28T09:30:25;2.40;;;2.23;;
14748;SDS011;7466;53.574;9.976;2023-07-28T09:32:53;2.50;;;2.40;;
14748;SDS011;7466;53.574;9.976;2023-07-28T09:35:22;2.43;;;2.33;;
14748;SDS011;7466;53.574;9.976;2023-07-28T09:37:49;2.80;;;2.70;;
14748;SDS011;7466;53.574;9.976;2023-07-28T09:40:18;2.50;;;2.40;;
14748;SDS011;7466;53.574;9.976;2023-07-28T09:42:47;2.70;;;2.50;;
14748;SDS011;7466;53.574;9.976;2023-07-28T09:45:15;2.80;;;2.70;;
14748;SDS011;7466;53.574;9.976;2023-07-28T09:47:44;3.00;;;2.90;;
14748;SDS011;7466;53.574;9.976;2023-07-28T09:50:11;3.17;;;3.00;;
14748;SDS011;7466;53.574;9.976;2023-07-28T09:52:42;2.97;;;2.87;;
14748;SDS011;7466;53.574;9.976;2023-07-28T09:55:11;3.40;;;3.20;;
14748;SDS011;7466;53.574;9.976;2023-07-28T09:57:41;2.67;;;2.57;;
14748;SDS011;7466;53.574;9.976;2023-07-28T10:00:13;2.53;;;2.37;;
14748;SDS011;7466;53.574;9.976;2023-07-28T10:02:41;4.00;;;2.87;;
14748;SDS011;7466;53.574;9.976;2023-07-28T10:05:09;2.77;;;2.60;;
14748;SDS011;7466;53.574;9.976;2023-07-28T10:07:37;2.83;;;2.70;;
14748;SDS011;7466;53.574;9.976;2023-07-28T10:10:06;2.90;;;2.70;;
14748;SDS011;7466;53.574;9.976;2023-07-28T10:12:39;2.30;;;2.10;;
14748;SDS011;7466;53.574;9.976;2023-07-28T10:15:07;2.80;;;2.70;;
14748;SDS011;7466;53.574;9.976;2023-07-28T10:17:43;2.73;;;2.63;;
14748;SDS011;7466;53.574;9.976;2023-07-28T10:23:04;2.47;;;2.27;;
14748;SDS011;7466;53.574;9.976;2023-07-28T10:25:32;2.70;;;2.50;;
14748;SDS011;7466;53.574;9.976;2023-07-28T10:28:01;2.70;;;2.60;;
14748;SDS011;7466;53.574;9.976;2023-07-28T10:30:30;2.50;;;2.40;;
14748;SDS011;7466;53.574;9.976;2023-07-28T10:33:05;2.50;;;2.40;;
14748;SDS011;7466;53.574;9.976;2023-07-28T10:35:32;2.72;;;2.63;;
14748;SDS011;7466;53.574;9.976;2023-07-28T10:41:11;2.30;;;2.10;;
14748;SDS011;7466;53.574;9.976;2023-07-28T10:43:39;2.13;;;2.03;;
14748;SDS011;7466;53.574;9.976;2023-07-28T10:46:09;2.30;;;2.20;;
14748;SDS011;7466;53.574;9.976;2023-07-28T10:48:37;2.05;;;1.90;;
14748;SDS011;7466;53.574;9.976;2023-07-28T10:51:08;2.50;;;2.30;;
14748;SDS011;7466;53.574;9.976;2023-07-28T10:53:36;1.77;;;1.67;;
14748;SDS011;7466;53.574;9.976;2023-07-28T10:56:03;2.17;;;2.07;;
14748;SDS011;7466;53.574;9.976;2023-07-28T10:58:32;2.28;;;2.15;;
14748;SDS011;7466;53.574;9.976;2023-07-28T11:01:00;2.27;;;2.17;;
14748;SDS011;7466;53.574;9.976;2023-07-28T11:03:29;2.03;;;1.92;;
14748;SDS011;7466;53.574;9.976;2023-07-28T11:05:55;3.05;;;2.10;;
14748;SDS011;7466;53.574;9.976;2023-07-28T11:08:22;2.33;;;2.22;;
14748;SDS011;7466;53.574;9.976;2023-07-28T11:10:50;2.50;;;2.20;;
14748;SDS011;7466;53.574;9.976;2023-07-28T11:13:16;2.42;;;2.22;;
14748;SDS011;7466;53.574;9.976;2023-07-28T11:15:43;2.47;;;2.30;;
14748;SDS011;7466;53.574;9.976;2023-07-28T11:18:10;1.92;;;1.83;;
14748;SDS011;7466;53.574;9.976;2023-07-28T11:20:38;2.50;;;2.30;;
14748;SDS011;7466;53.574;9.976;2023-07-28T11:23:05;2.22;;;2.13;;
14748;SDS011;7466;53.574;9.976;2023-07-28T11:25:32;1.83;;;1.80;;
14748;SDS011;7466;53.574;9.976;2023-07-28T11:28:00;1.80;;;1.80;;
14748;SDS011;7466;53.574;9.976;2023-07-28T11:30:28;1.92;;;1.75;;
14748;SDS011;7466;53.574;9.976;2023-07-28T11:32:55;1.85;;;1.75;;
14748;SDS011;7466;53.574;9.976;2023-07-28T11:35:22;1.70;;;1.60;;
14748;SDS011;7466;53.574;9.976;2023-07-28T11:37:50;1.80;;;1.70;;
14748;SDS011;7466;53.574;9.976;2023-07-28T11:40:20;1.95;;;1.85;;
14748;SDS011;7466;53.574;9.976;2023-07-28T11:42:51;1.52;;;1.52;;
14748;SDS011;7466;53.574;9.976;2023-07-28T11:45:19;1.70;;;1.70;;
14748;SDS011;7466;53.574;9.976;2023-07-28T11:47:57;1.80;;;1.70;;
14748;SDS011;7466;53.574;9.976;2023-07-28T11:50:25;1.77;;;1.70;;
14748;SDS011;7466;53.574;9.976;2023-07-28T11:52:54;1.90;;;1.80;;
14748;SDS011;7466;53.574;9.976;2023-07-28T11:55:21;1.75;;;1.67;;
14748;SDS011;7466;53.574;9.976;2023-07-28T11:57:49;1.75;;;1.65;;
14748;SDS011;7466;53.574;9.976;2023-07-28T12:00:17;1.95;;;1.85;;
14748;SDS011;7466;53.574;9.976;2023-07-28T12:02:59;2.75;;;1.75;;
14748;SDS011;7466;53.574;9.976;2023-07-28T12:05:27;1.70;;;1.60;;
14748;SDS011;7466;53.574;9.976;2023-07-28T12:07:55;1.67;;;1.60;;
14748;SDS011;7466;53.574;9.976;2023-07-28T12:10:22;1.50;;;1.40;;
14748;SDS011;7466;53.574;9.976;2023-07-28T12:12:49;1.50;;;1.42;;
14748;SDS011;7466;53.574;9.976;2023-07-28T12:15:23;1.85;;;1.75;;
14748;SDS011;7466;53.574;9.976;2023-07-28T12:18:00;1.40;;;1.40;;
14748;SDS011;7466;53.574;9.976;2023-07-28T12:20:38;1.25;;;1.25;;
14748;SDS011;7466;53.574;9.976;2023-07-28T12:23:08;1.33;;;1.33;;
14748;SDS011;7466;53.574;9.976;2023-07-28T12:25:35;1.70;;;1.60;;
14748;SDS011;7466;53.574;9.976;2023-07-28T12:28:02;1.58;;;1.38;;
14748;SDS011;7466;53.574;9.976;2023-07-28T12:30:30;1.33;;;1.33;;
14748;SDS011;7466;53.574;9.976;2023-07-28T12:32:56;1.60;;;1.52;;
14748;SDS011;7466;53.574;9.976;2023-07-28T12:35:24;1.42;;;1.42;;
14748;SDS011;7466;53.574;9.976;2023-07-28T12:37:54;1.80;;;1.70;;
14748;SDS011;7466;53.574;9.976;2023-07-28T12:40:23;1.63;;;1.52;;
14748;SDS011;7466;53.574;9.976;2023-07-28T12:42:49;1.27;;;1.23;;
14748;SDS011;7466;53.574;9.976;2023-07-28T12:45:16;1.77;;;1.25;;
14748;SDS011;7466;53.574;9.976;2023-07-28T12:47:43;1.40;;;1.40;;
14748;SDS011;7466;53.574;9.976;2023-07-28T12:50:09;1.23;;;1.20;;
14748;SDS011;7466;53.574;9.976;2023-07-28T12:52:36;1.20;;;1.20;;
14748;SDS011;7466;53.574;9.976;2023-07-28T12:55:03;1.48;;;1.45;;
14748;SDS011;7466;53.574;9.976;2023-07-28T12:57:31;1.60;;;1.60;;
14748;SDS011;7466;53.574;9.976;2023-07-28T12:59:58;1.15;;;1.15;;
14748;SDS011;7466;53.574;9.976;2023-07-28T13:02:25;1.27;;;1.27;;
14748;SDS011;7466;53.574;9.976;2023-07-28T13:04:52;1.48;;;1.38;;
14748;SDS011;7466;53.574;9.976;2023-07-28T13:07:18;1.30;;;1.30;;
14748;SDS011;7466;53.574;9.976;2023-07-28T13:09:47;1.40;;;1.30;;
14748;SDS011;7466;53.574;9.976;2023-07-28T13:12:14;1.90;;;1.30;;
14748;SDS011;7466;53.574;9.976;2023-07-28T13:14:42;1.20;;;1.20;;
14748;SDS011;7466;53.574;9.976;2023-07-28T13:17:08;1.40;;;1.33;;
14748;SDS011;7466;53.574;9.976;2023-07-28T13:19:36;1.20;;;1.20;;
14748;SDS011;7466;53.574;9.976;2023-07-28T13:22:04;1.40;;;1.40;;
14748;SDS011;7466;53.574;9.976;2023-07-28T13:24:31;1.20;;;1.20;;
14748;SDS011;7466;53.574;9.976;2023-07-28T13:26:58;1.48;;;1.10;;
14748;SDS011;7466;53.574;9.976;2023-07-28T13:29:24;1.42;;;1.40;;
14748;SDS011;7466;53.574;9.976;2023-07-28T13:31:56;1.50;;;1.40;;
14748;SDS011;7466;53.574;9.976;2023-07-28T13:34:24;1.20;;;1.20;;
14748;SDS011;7466;53.574;9.976;2023-07-28T13:36:51;1.20;;;1.20;;
14748;SDS011;7466;53.574;9.976;2023-07-28T13:39:18;1.10;;;1.10;;
14748;SDS011;7466;53.574;9.976;2023-07-28T13:41:44;1.52;;;1.33;;
14748;SDS011;7466;53.574;9.976;2023-07-28T13:44:11;1.70;;;1.30;;
14748;SDS011;7466;53.574;9.976;2023-07-28T13:46:38;1.30;;;1.20;;
14748;SDS011;7466;53.574;9.976;2023-07-28T13:49:06;1.13;;;1.10;;
14748;SDS011;7466;53.574;9.976;2023-07-28T13:51:32;1.20;;;1.20;;
14748;SDS011;7466;53.574;9.976;2023-07-28T13:53:59;1.10;;;1.10;;
14748;SDS011;7466;53.574;9.976;2023-07-28T13:56:26;1.25;;;1.20;;
14748;SDS011;7466;53.574;9.976;2023-07-28T13:58:53;1.60;;;1.50;;
14748;SDS011;7466;53.574;9.976;2023-07-28T14:01:19;1.33;;;1.30;;
14748;SDS011;7466;53.574;9.976;2023-07-28T14:03:46;1.27;;;1.20;;
14748;SDS011;7466;53.574;9.976;2023-07-28T14:06:14;1.42;;;1.40;;
14748;SDS011;7466;53.574;9.976;2023-07-28T14:08:41;1.02;;;1.02;;
14748;SDS011;7466;53.574;9.976;2023-07-28T14:11:10;1.70;;;1.60;;
14748;SDS011;7466;53.574;9.976;2023-07-28T14:13:37;1.27;;;1.20;;
14748;SDS011;7466;53.574;9.976;2023-07-28T14:16:03;1.05;;;1.05;;
14748;SDS011;7466;53.574;9.976;2023-07-28T14:18:31;1.85;;;1.55;;
14748;SDS011;7466;53.574;9.976;2023-07-28T14:20:57;1.25;;;1.25;;
14748;SDS011;7466;53.574;9.976;2023-07-28T14:23:26;2.13;;;1.20;;
14748;SDS011;7466;53.574;9.976;2023-07-28T14:25:53;1.13;;;1.13;;
14748;SDS011;7466;53.574;9.976;2023-07-28T14:28:20;1.42;;;1.33;;
14748;SDS011;7466;53.574;9.976;2023-07-28T14:30:49;1.20;;;1.20;;
14748;SDS011;7466;53.574;9.976;2023-07-28T14:33:17;1.45;;;1.35;;
14748;SDS011;7466;53.574;9.976;2023-07-28T14:35:44;1.45;;;1.23;;
14748;SDS011;7466;53.574;9.976;2023-07-28T14:38:13;1.30;;;1.30;;
14748;SDS011;7466;53.574;9.976;2023-07-28T14:40:41;2.20;;;1.30;;
14748;SDS011;7466;53.574;9.976;2023-07-28T14:43:11;1.00;;;0.95;;
14748;SDS011;7466;53.574;9.976;2023-07-28T14:45:38;1.52;;;0.93;;
14748;SDS011;7466;53.574;9.976;2023-07-28T14:48:05;1.02;;;1.02;;
14748;SDS011;7466;53.574;9.976;2023-07-28T14:50:31;1.30;;;1.20;;
14748;SDS011;7466;53.574;9.976;2023-07-28T14:52:58;1.38;;;1.10;;
14748;SDS011;7466;53.574;9.976;2023-07-28T14:55:25;1.13;;;1.13;;
14748;SDS011;7466;53.574;9.976;2023-07-28T14:57:53;1.50;;;1.15;;
14748;SDS011;7466;53.574;9.976;2023-07-28T15:00:20;1.17;;;1.15;;
14748;SDS011;7466;53.574;9.976;2023-07-28T15:02:47;1.10;;;1.10;;
14748;SDS011;7466;53.574;9.976;2023-07-28T15:05:14;1.10;;;1.00;;
14748;SDS011;7466;53.574;9.976;2023-07-28T15:07:40;1.08;;;1.08;;